Time;durP1;ratioP1;P1;durP2;ratioP2;P2;SDS_P1;SDS_P2;PMS_P1;PMS_P2;Temp;Humidity;BMP_temperature;BMP_pressure;BME280_temperature;BME280_humidity;BME280_pressure;Samples;Min_cycle;Max_cycle;Signal;HPM_P1;HPM_P2
2023/03/01 00:01:39;;;;;;;3.70;1.70;;;30.50;64.20;;;;;;5055246;28;20456;-62
2023/03/01 00:04:06;;;;;;;11.10;2.20;;;30.80;65.00;;;;;;5046507;28;20687;-62
2023/03/01 00:06:34;;;;;;;4.70;1.55;;;31.10;64.30;;;;;;5055370;28;20017;-64
2023/03/01 00:09:01;;;;;;;2.38;1.45;;;31.10;56.20;;;;;;5052778;28;20049;-63
2023/03/01 00:11:31;;;;;;;4.18;1.38;;;31.10;56.20;;;;;;5047946;28;20024;-63
2023/03/01 00:14:18;;;;;;;3.88;1.67;;;31.00;57.20;;;;;;5046674;28;20029;-63
2023/03/01 00:16:46;;;;;;;5.30;2.00;;;30.90;56.40;;;;;;5054984;28;20421;-65
2023/03/01 00:19:19;;;;;;;8.52;1.80;;;30.70;58.40;;;;;;5047788;28;20032;-63
2023/03/01 00:21:47;;;;;;;5.63;2.17;;;30.90;57.00;;;;;;5038976;28;20094;-64
2023/03/01 00:24:14;;;;;;;3.60;1.55;;;31.10;57.10;;;;;;5047288;28;20546;-64
2023/03/01 00:26:42;;;;;;;3.40;1.70;;;31.00;53.10;;;;;;5045718;28;20051;-64
2023/03/01 00:29:09;;;;;;;4.47;1.50;;;30.70;53.80;;;;;;5052173;28;20505;-63
2023/03/01 00:31:36;;;;;;;7.38;1.77;;;30.80;56.70;;;;;;5047455;28;20132;-63
2023/03/01 00:34:05;;;;;;;7.88;1.77;;;30.70;55.00;;;;;;5042276;28;20441;-63
2023/03/01 00:36:37;;;;;;;3.28;1.60;;;30.70;54.30;;;;;;5044181;28;20029;-63
2023/03/01 00:39:08;;;;;;;3.25;1.10;;;30.60;54.70;;;;;;5040162;28;20032;-62
2023/03/01 00:41:35;;;;;;;2.13;1.42;;;30.70;51.60;;;;;;5051833;28;20103;-62
2023/03/01 00:44:03;;;;;;;2.97;1.55;;;30.90;53.90;;;;;;5043774;28;20040;-63
2023/03/01 00:46:31;;;;;;;4.97;1.92;;;31.10;53.70;;;;;;5044759;28;20033;-63
2023/03/01 00:49:01;;;;;;;2.42;1.17;;;31.30;51.60;;;;;;5044631;28;20443;-63
2023/03/01 00:51:30;;;;;;;2.35;1.15;;;31.30;49.30;;;;;;5043344;28;20035;-60
2023/03/01 00:54:00;;;;;;;4.60;1.60;;;31.20;50.30;;;;;;5046037;28;20029;-60
2023/03/01 00:56:28;;;;;;;3.90;1.38;;;31.40;52.20;;;;;;5049185;28;20108;-60
2023/03/01 00:58:55;;;;;;;3.20;1.55;;;31.60;49.50;;;;;;5043368;28;20540;-60
2023/03/01 01:01:29;;;;;;;13.27;1.70;;;31.40;49.30;;;;;;5039550;28;20112;-61
2023/03/01 01:04:03;;;;;;;4.22;1.30;;;31.40;51.90;;;;;;5045849;28;20033;-60
2023/03/01 01:06:36;;;;;;;3.50;1.50;;;31.60;50.80;;;;;;5044982;28;20025;-60
2023/03/01 01:09:05;;;;;;;4.22;1.20;;;31.50;52.90;;;;;;5054443;28;20029;-60
2023/03/01 01:11:33;;;;;;;4.47;1.50;;;31.40;50.60;;;;;;5055509;28;20036;-60
2023/03/01 01:14:00;;;;;;;2.67;1.35;;;31.30;49.50;;;;;;5052743;28;20021;-61
2023/03/01 01:16:29;;;;;;;5.30;1.65;;;31.00;52.70;;;;;;5049120;28;20116;-60
2023/03/01 01:18:57;;;;;;;6.13;1.63;;;30.80;51.30;;;;;;5049202;28;20432;-60
2023/03/01 01:21:27;;;;;;;4.10;1.40;;;30.60;52.30;;;;;;5054853;28;20111;-60
2023/03/01 01:23:54;;;;;;;3.65;1.50;;;30.80;53.00;;;;;;5054127;28;20799;-61
2023/03/01 01:26:24;;;;;;;5.80;1.63;;;30.90;50.80;;;;;;5050029;28;20090;-59
2023/03/01 01:28:52;;;;;;;2.20;1.30;;;31.10;53.10;;;;;;5050237;28;20056;-60
2023/03/01 01:31:20;;;;;;;3.58;2.08;;;31.20;50.50;;;;;;5047553;28;20044;-60
2023/03/01 01:33:47;;;;;;;2.97;1.27;;;31.20;51.30;;;;;;5050812;28;20043;-60
2023/03/01 01:36:15;;;;;;;6.25;1.40;;;31.40;51.30;;;;;;5056430;28;20017;-60
2023/03/01 01:38:42;;;;;;;2.25;1.30;;;31.60;51.90;;;;;;5047702;28;20029;-59
2023/03/01 01:41:11;;;;;;;3.55;1.30;;;31.60;49.50;;;;;;5044174;28;20032;-59
2023/03/01 01:43:45;;;;;;;3.72;1.30;;;31.30;48.60;;;;;;5042394;28;20032;-59
2023/03/01 01:46:39;;;;;;;2.58;1.20;;;31.30;49.70;;;;;;5045585;28;20036;-59
2023/03/01 01:49:10;;;;;;;;;;;31.10;50.70;;;;;;5031486;28;20094;-59
2023/03/01 01:51:41;;;;;;;9.65;1.48;;;31.10;52.20;;;;;;5059323;28;20003;-61
2023/03/01 01:54:48;;;;;;;4.45;1.73;;;31.10;51.10;;;;;;5063563;28;20029;-59
2023/03/01 01:57:33;;;;;;;4.05;1.70;;;31.10;50.70;;;;;;5046050;28;20048;-63
2023/03/01 02:00:08;;;;;;;4.78;1.83;;;31.10;52.90;;;;;;5050576;28;20078;-59
2023/03/01 02:02:36;;;;;;;4.18;1.70;;;31.10;51.80;;;;;;5045698;28;20322;-60
2023/03/01 02:05:27;;;;;;;4.70;1.40;;;31.30;51.20;;;;;;5050433;28;20130;-60
2023/03/01 02:07:56;;;;;;;5.97;1.55;;;31.20;50.50;;;;;;5057208;28;20033;-59
2023/03/01 02:10:25;;;;;;;7.22;2.05;;;31.10;49.90;;;;;;5053848;28;20029;-60
2023/03/01 02:12:53;;;;;;;3.42;1.70;;;30.80;50.90;;;;;;5036338;28;20017;-60
2023/03/01 02:15:21;;;;;;;3.85;1.40;;;30.50;50.30;;;;;;5062782;28;20671;-60
2023/03/01 02:17:48;;;;;;;4.13;1.60;;;30.50;51.30;;;;;;5057935;28;20106;-59
2023/03/01 02:20:30;;;;;;;3.85;1.38;;;30.50;49.50;;;;;;5062508;28;20032;-60
2023/03/01 02:22:58;;;;;;;4.93;1.65;;;30.30;50.80;;;;;;5038100;28;20553;-59
2023/03/01 02:25:34;;;;;;;3.00;0.95;;;30.20;49.40;;;;;;5058042;28;20047;-59
2023/03/01 02:28:16;;;;;;;4.82;1.40;;;30.40;50.50;;;;;;5057103;28;20505;-60
2023/03/01 02:33:37;;;;;;;3.65;1.27;;;31.10;50.80;;;;;;5058887;28;20060;-60
2023/03/01 02:36:17;;;;;;;5.18;1.45;;;31.50;51.50;;;;;;5061941;28;20056;-61
2023/03/01 02:38:45;;;;;;;4.10;1.48;;;32.00;51.60;;;;;;5050092;28;20029;-60
2023/03/01 02:41:15;;;;;;;2.42;1.20;;;32.00;49.10;;;;;;5058769;28;20476;-60
2023/03/01 02:43:43;;;;;;;4.25;1.52;;;32.00;48.80;;;;;;5049096;28;20107;-59
2023/03/01 02:46:20;;;;;;;3.33;1.77;;;31.80;49.60;;;;;;5046971;28;20102;-59
2023/03/01 02:48:51;;;;;;;4.75;1.55;;;31.80;50.90;;;;;;5055037;28;20017;-59
2023/03/01 02:51:34;;;;;;;5.88;2.00;;;31.60;50.10;;;;;;5046558;28;20091;-59
2023/03/01 02:54:34;;;;;;;5.57;1.83;;;31.50;50.40;;;;;;5047602;28;20277;-59
2023/03/01 02:57:02;;;;;;;4.82;1.30;;;31.30;51.50;;;;;;5045359;28;20017;-60
2023/03/01 02:59:38;;;;;;;3.38;1.77;;;31.30;51.80;;;;;;5045836;28;20055;-59
2023/03/01 03:02:08;;;;;;;4.13;1.80;;;31.20;52.50;;;;;;5050340;28;20083;-59
2023/03/01 03:04:35;;;;;;;4.82;1.88;;;31.10;52.60;;;;;;5047561;28;20098;-59
2023/03/01 03:07:02;;;;;;;5.30;2.10;;;31.10;53.80;;;;;;5036903;28;20021;-60
2023/03/01 03:09:30;;;;;;;3.97;1.58;;;31.20;53.90;;;;;;5056791;28;20021;-60
2023/03/01 03:11:57;;;;;;;5.28;1.75;;;31.10;53.90;;;;;;5050218;28;20048;-59
2023/03/01 03:14:24;;;;;;;4.85;1.98;;;31.10;55.50;;;;;;5045849;28;20841;-59
2023/03/01 03:16:52;;;;;;;3.80;1.58;;;31.20;56.30;;;;;;5044184;28;20052;-60
2023/03/01 03:19:20;;;;;;;9.32;2.60;;;31.60;56.50;;;;;;5044765;28;20032;-60
2023/03/01 03:21:49;;;;;;;3.38;1.77;;;32.10;55.10;;;;;;5044028;28;20509;-60
2023/03/01 03:24:18;;;;;;;2.38;1.30;;;32.20;55.00;;;;;;5049061;28;20037;-61
2023/03/01 03:26:45;;;;;;;2.88;1.70;;;32.30;53.80;;;;;;5049696;28;20028;-63
2023/03/01 03:29:12;;;;;;;6.55;1.92;;;32.80;52.60;;;;;;5055181;28;20021;-59
2023/03/01 03:31:40;;;;;;;2.58;1.60;;;33.00;52.40;;;;;;5053921;28;20578;-61
2023/03/01 03:34:07;;;;;;;2.78;1.40;;;32.70;53.40;;;;;;5053214;28;20120;-61
2023/03/01 03:36:35;;;;;;;7.57;1.50;;;33.10;54.00;;;;;;5057756;28;20029;-59
2023/03/01 03:39:02;;;;;;;4.32;1.40;;;33.00;52.90;;;;;;5045875;28;20112;-64
2023/03/01 03:41:29;;;;;;;3.42;1.55;;;33.00;53.90;;;;;;5036291;28;20025;-63
2023/03/01 03:43:57;;;;;;;6.25;1.77;;;32.50;52.90;;;;;;5046504;28;20028;-64
2023/03/01 03:46:25;;;;;;;3.17;1.70;;;32.40;54.00;;;;;;5043805;28;20017;-63
2023/03/01 03:48:52;;;;;;;4.07;1.23;;;32.30;53.40;;;;;;5047440;28;20032;-63
2023/03/01 03:51:22;;;;;;;4.80;1.65;;;32.60;56.00;;;;;;5045750;28;20029;-63
2023/03/01 03:53:49;;;;;;;4.40;1.73;;;32.70;54.80;;;;;;5042243;28;20404;-63
2023/03/01 03:56:17;;;;;;;4.38;1.60;;;32.70;54.70;;;;;;5044802;28;20599;-63
2023/03/01 03:58:44;;;;;;;2.60;1.20;;;32.60;55.00;;;;;;5036013;28;20025;-62
2023/03/01 04:01:12;;;;;;;4.57;1.55;;;32.60;55.30;;;;;;5043131;28;20078;-62
2023/03/01 04:03:41;;;;;;;5.75;1.30;;;32.40;53.40;;;;;;5035921;28;20043;-62
2023/03/01 04:06:08;;;;;;;5.30;1.40;;;31.90;54.10;;;;;;5040393;28;20032;-64
2023/03/01 04:08:36;;;;;;;2.70;1.50;;;31.70;55.10;;;;;;5041295;28;20108;-63
2023/03/01 04:13:52;;;;;;;4.53;1.55;;;31.90;54.70;;;;;;5055135;28;20582;-64
2023/03/01 04:16:20;;;;;;;3.72;1.63;;;32.10;54.10;;;;;;5049827;28;20029;-63
2023/03/01 04:18:48;;;;;;;8.48;1.50;;;32.00;53.80;;;;;;5036984;28;20028;-63
2023/03/01 04:21:15;;;;;;;3.10;1.40;;;32.10;54.50;;;;;;5041108;28;20026;-64
2023/03/01 04:23:42;;;;;;;3.20;1.73;;;32.00;53.10;;;;;;5038351;28;20121;-64
2023/03/01 04:26:10;;;;;;;3.53;1.10;;;31.90;53.70;;;;;;5056346;28;20501;-63
2023/03/01 04:28:40;;;;;;;2.75;1.02;;;31.20;63.60;;;;;;5049262;28;20109;-66
2023/03/01 04:31:17;;;;;;;3.40;0.98;;;31.00;65.80;;;;;;5041169;28;20037;-65
2023/03/01 04:33:53;;;;;;;6.25;1.10;;;30.90;67.00;;;;;;5042835;28;20037;-65
2023/03/01 04:36:26;;;;;;;4.00;0.90;;;30.20;68.60;;;;;;5034459;28;20021;-65
2023/03/01 04:38:54;;;;;;;10.20;1.63;;;29.90;69.90;;;;;;5050104;28;20025;-68
2023/03/01 04:41:23;;;;;;;4.18;0.80;;;29.50;71.50;;;;;;5043256;28;20120;-68
2023/03/01 04:43:51;;;;;;;2.28;0.77;;;29.30;74.10;;;;;;5040015;28;20148;-65
2023/03/01 04:46:20;;;;;;;1.23;0.73;;;29.20;73.70;;;;;;5042883;28;20078;-64
2023/03/01 04:48:48;;;;;;;2.15;0.90;;;28.90;74.80;;;;;;5034685;28;20052;-64
2023/03/01 04:51:16;;;;;;;4.40;0.82;;;29.20;75.10;;;;;;5037712;28;20029;-66
2023/03/01 04:53:44;;;;;;;5.53;0.82;;;29.10;75.40;;;;;;5033468;28;20078;-64
2023/03/01 04:56:13;;;;;;;3.20;0.60;;;28.90;72.80;;;;;;5045732;28;20036;-64
2023/03/01 04:58:41;;;;;;;2.22;0.60;;;28.90;72.00;;;;;;5042315;28;20040;-64
2023/03/01 05:01:18;;;;;;;0.80;0.50;;;28.80;72.40;;;;;;5049096;28;20127;-65
2023/03/01 05:03:47;;;;;;;2.47;0.63;;;28.60;71.80;;;;;;5034644;28;20033;-65
2023/03/01 05:06:16;;;;;;;4.70;0.50;;;28.40;72.20;;;;;;5051590;28;20045;-66
2023/03/01 05:08:44;;;;;;;4.32;0.70;;;28.30;71.70;;;;;;5053286;28;20030;-62
2023/03/01 05:11:12;;;;;;;1.92;0.93;;;28.50;71.50;;;;;;5042516;28;20071;-63
2023/03/01 05:13:40;;;;;;;3.72;0.50;;;28.50;71.70;;;;;;5044065;28;20028;-60
2023/03/01 05:16:12;;;;;;;0.60;0.40;;;28.40;71.20;;;;;;5030183;28;20065;-60
2023/03/01 05:18:41;;;;;;;1.48;0.60;;;28.10;72.10;;;;;;5041317;28;20021;-60
2023/03/01 05:21:15;;;;;;;1.38;0.60;;;28.10;73.00;;;;;;5044954;28;20081;-60
2023/03/01 05:23:43;;;;;;;2.45;0.82;;;28.00;73.70;;;;;;5056346;28;20127;-61
2023/03/01 05:26:12;;;;;;;2.85;0.80;;;28.10;75.30;;;;;;5044291;28;20033;-61
2023/03/01 05:28:40;;;;;;;3.00;0.80;;;28.40;74.90;;;;;;5054421;28;20036;-60
2023/03/01 05:31:09;;;;;;;3.03;0.75;;;28.50;73.80;;;;;;5046542;28;20481;-61
2023/03/01 05:33:41;;;;;;;2.00;0.40;;;28.50;73.60;;;;;;5042807;28;20048;-61
2023/03/01 05:36:09;;;;;;;2.30;0.77;;;28.20;73.60;;;;;;5043458;28;20052;-60
2023/03/01 05:38:37;;;;;;;2.80;0.60;;;28.20;73.10;;;;;;5043854;28;20036;-60
2023/03/01 05:41:05;;;;;;;1.63;0.70;;;28.00;73.00;;;;;;5048322;28;20111;-60
2023/03/01 05:43:35;;;;;;;1.42;0.60;;;27.90;75.20;;;;;;5044471;28;20037;-62
2023/03/01 05:46:03;;;;;;;5.95;0.85;;;28.00;75.20;;;;;;5048828;28;20090;-59
2023/03/01 05:48:30;;;;;;;9.32;1.02;;;28.00;76.30;;;;;;5059793;28;20423;-60
2023/03/01 05:51:00;;;;;;;5.72;1.05;;;28.00;77.10;;;;;;5056819;28;20107;-61
2023/03/01 05:53:28;;;;;;;6.13;0.77;;;28.10;78.40;;;;;;5057888;28;20017;-60
2023/03/01 05:55:55;;;;;;;5.45;1.50;;;28.20;77.70;;;;;;5043142;28;20063;-60
2023/03/01 05:58:23;;;;;;;15.60;1.45;;;28.10;76.80;;;;;;5047181;28;20029;-59
2023/03/01 06:00:51;;;;;;;4.55;0.75;;;28.10;76.70;;;;;;5044866;28;20027;-61
2023/03/01 06:03:18;;;;;;;7.55;1.45;;;27.90;78.00;;;;;;5039693;28;20025;-59
2023/03/01 06:05:46;;;;;;;2.55;1.00;;;27.70;78.80;;;;;;5035744;28;20037;-60
2023/03/01 06:08:14;;;;;;;3.30;0.70;;;27.50;79.20;;;;;;5047137;28;20028;-60
2023/03/01 06:10:41;;;;;;;3.47;0.90;;;27.40;80.90;;;;;;5042482;28;20083;-60
2023/03/01 06:13:09;;;;;;;3.78;1.23;;;27.30;82.20;;;;;;5053004;28;20021;-59
2023/03/01 06:15:36;;;;;;;5.53;1.13;;;27.30;83.80;;;;;;5048708;28;20087;-60
2023/03/01 06:18:04;;;;;;;3.88;1.00;;;27.20;84.50;;;;;;5049980;28;20547;-60
2023/03/01 06:20:31;;;;;;;8.90;1.45;;;27.10;85.40;;;;;;5044953;28;20091;-60
2023/03/01 06:22:59;;;;;;;4.13;1.30;;;27.00;86.90;;;;;;5041063;28;20033;-59
2023/03/01 06:25:28;;;;;;;5.18;1.25;;;27.00;86.30;;;;;;5055095;28;20439;-61
2023/03/01 06:27:56;;;;;;;4.10;1.48;;;26.90;88.50;;;;;;5056783;28;20448;-60
2023/03/01 06:30:25;;;;;;;3.65;0.90;;;26.80;90.20;;;;;;5045476;28;20021;-62
2023/03/01 06:32:52;;;;;;;9.80;1.45;;;26.70;90.30;;;;;;5046021;28;20593;-60
2023/03/01 06:35:20;;;;;;;5.43;1.58;;;26.60;90.70;;;;;;5049957;28;20023;-62
2023/03/01 06:37:48;;;;;;;3.70;1.30;;;26.50;91.10;;;;;;5043520;28;20496;-60
2023/03/01 06:40:17;;;;;;;10.73;1.70;;;26.20;91.50;;;;;;5053145;28;20079;-60
2023/03/01 06:42:49;;;;;;;4.35;1.35;;;25.90;92.50;;;;;;5054519;28;20052;-60
2023/03/01 06:45:21;;;;;;;7.05;1.55;;;25.70;93.40;;;;;;5048369;28;20037;-61
2023/03/01 06:47:48;;;;;;;5.03;1.42;;;25.50;95.10;;;;;;5061932;28;20028;-60
2023/03/01 06:50:17;;;;;;;4.20;1.23;;;25.40;96.60;;;;;;5047222;28;20029;-60
2023/03/01 06:52:45;;;;;;;2.88;1.00;;;25.40;97.40;;;;;;5055941;28;20056;-60
2023/03/01 06:55:13;;;;;;;5.20;1.10;;;25.50;98.10;;;;;;5056424;28;20031;-60
2023/03/01 06:57:40;;;;;;;6.80;1.38;;;25.60;98.00;;;;;;5055262;28;20025;-60
2023/03/01 07:00:09;;;;;;;3.65;0.90;;;25.70;98.30;;;;;;5045856;28;20028;-60
2023/03/01 07:02:36;;;;;;;7.68;1.17;;;25.60;98.60;;;;;;5052209;28;20030;-60
2023/03/01 07:05:04;;;;;;;7.47;1.50;;;25.40;99.60;;;;;;5042549;28;20037;-61
2023/03/01 07:07:31;;;;;;;5.80;1.38;;;25.40;99.90;;;;;;5053495;28;20111;-59
2023/03/01 07:09:59;;;;;;;5.20;1.17;;;25.50;99.90;;;;;;5051399;28;20028;-60
2023/03/01 07:12:26;;;;;;;8.57;1.83;;;25.50;99.90;;;;;;5053143;28;20029;-61
2023/03/01 07:14:54;;;;;;;10.05;1.48;;;25.50;99.90;;;;;;5041195;28;20032;-61
2023/03/01 07:17:21;;;;;;;9.82;1.55;;;25.40;99.90;;;;;;5044892;28;20025;-63
2023/03/01 07:19:49;;;;;;;6.28;1.77;;;25.40;99.90;;;;;;5038320;28;20123;-61
2023/03/01 07:22:16;;;;;;;7.63;1.98;;;25.30;99.90;;;;;;5044278;28;20021;-60
2023/03/01 07:24:44;;;;;;;13.73;2.45;;;25.00;99.90;;;;;;5037820;28;20083;-60
2023/03/01 07:27:12;;;;;;;5.97;1.48;;;25.00;99.90;;;;;;5049117;28;20506;-60
2023/03/01 07:29:39;;;;;;;9.13;2.08;;;25.00;99.90;;;;;;5048595;28;20025;-63
2023/03/01 07:32:07;;;;;;;6.82;1.42;;;25.00;99.90;;;;;;5045506;28;20045;-60
2023/03/01 07:34:34;;;;;;;7.47;1.40;;;24.80;99.90;;;;;;5047242;28;20397;-62
2023/03/01 07:37:02;;;;;;;7.10;1.73;;;24.50;99.90;;;;;;5047905;28;20056;-60
2023/03/01 07:39:29;;;;;;;6.03;1.52;;;24.20;99.90;;;;;;5044382;28;20032;-59
2023/03/01 07:41:57;;;;;;;9.88;1.73;;;24.00;99.90;;;;;;5049604;28;20075;-59
2023/03/01 07:44:24;;;;;;;7.88;1.85;;;23.80;99.90;;;;;;5044303;28;20077;-61
2023/03/01 07:46:56;;;;;;;6.63;1.45;;;23.60;99.90;;;;;;5046106;28;20650;-61
2023/03/01 07:49:23;;;;;;;5.00;1.58;;;23.50;99.90;;;;;;5044355;28;20040;-63
2023/03/01 07:51:51;;;;;;;7.50;2.03;;;23.40;99.90;;;;;;5038037;28;20445;-62
2023/03/01 07:54:18;;;;;;;11.20;1.67;;;23.40;99.90;;;;;;5042611;28;20031;-61
2023/03/01 07:56:45;;;;;;;7.35;1.52;;;23.40;99.90;;;;;;5044742;28;20135;-63
2023/03/01 07:59:13;;;;;;;6.13;1.55;;;23.50;99.90;;;;;;5040306;28;20102;-63
2023/03/01 08:01:41;;;;;;;8.40;2.08;;;23.50;99.90;;;;;;5040563;28;20157;-63
2023/03/01 08:04:10;;;;;;;12.13;2.10;;;23.50;99.90;;;;;;5039677;28;20375;-63
2023/03/01 08:06:37;;;;;;;8.85;1.50;;;23.40;99.90;;;;;;5045126;28;20037;-63
2023/03/01 08:09:05;;;;;;;6.85;1.40;;;23.40;99.90;;;;;;5041945;28;20192;-63
2023/03/01 08:11:32;;;;;;;7.13;1.75;;;23.40;99.90;;;;;;5048577;28;20055;-63
2023/03/01 08:14:00;;;;;;;8.80;1.77;;;23.40;99.90;;;;;;5039880;28;20017;-65
2023/03/01 08:16:27;;;;;;;10.02;1.75;;;23.30;99.90;;;;;;5037973;28;20402;-64
2023/03/01 08:18:56;;;;;;;9.60;1.48;;;23.30;99.90;;;;;;5043771;28;20127;-64
2023/03/01 08:21:23;;;;;;;8.30;1.77;;;23.20;99.90;;;;;;5036864;28;20029;-63
2023/03/01 08:23:51;;;;;;;10.15;2.05;;;23.10;99.90;;;;;;5042499;28;20021;-60
2023/03/01 08:26:20;;;;;;;6.55;1.70;;;23.10;99.90;;;;;;5046214;28;20024;-60
2023/03/01 08:28:49;;;;;;;8.70;2.03;;;23.10;99.90;;;;;;5041685;28;20460;-61
2023/03/01 08:31:18;;;;;;;5.70;1.67;;;23.10;99.90;;;;;;5042110;28;20120;-61
2023/03/01 08:33:50;;;;;;;9.07;1.85;;;23.00;99.90;;;;;;5039158;28;20041;-60
2023/03/01 08:36:19;;;;;;;9.00;1.60;;;23.00;99.90;;;;;;5038308;28;20040;-60
2023/03/01 08:38:46;;;;;;;5.20;1.42;;;23.00;99.90;;;;;;5037749;28;20497;-60
2023/03/01 08:41:14;;;;;;;8.95;2.10;;;23.00;99.90;;;;;;5043869;28;20110;-60
2023/03/01 08:43:42;;;;;;;4.82;1.20;;;23.00;99.90;;;;;;5049265;28;20025;-60
2023/03/01 08:46:10;;;;;;;7.68;1.75;;;23.00;99.90;;;;;;5043466;28;20037;-59
2023/03/01 08:48:38;;;;;;;8.88;1.75;;;23.00;99.90;;;;;;5045934;28;20067;-58
2023/03/01 08:51:10;;;;;;;6.13;1.88;;;22.90;99.90;;;;;;5043079;28;20020;-60
2023/03/01 08:53:38;;;;;;;4.95;1.60;;;22.90;99.90;;;;;;5054211;28;20033;-60
2023/03/01 08:56:06;;;;;;;9.98;2.63;;;22.90;99.90;;;;;;5031841;28;20044;-61
2023/03/01 08:58:34;;;;;;;7.15;1.95;;;22.80;99.90;;;;;;5041260;28;20029;-60
2023/03/01 09:01:06;;;;;;;7.10;1.60;;;22.80;99.90;;;;;;5045661;28;20054;-61
2023/03/01 09:03:34;;;;;;;11.90;1.77;;;22.80;99.90;;;;;;5043846;28;20559;-60
2023/03/01 09:06:03;;;;;;;11.88;2.25;;;22.80;99.90;;;;;;5052626;28;20040;-61
2023/03/01 09:08:37;;;;;;;10.15;2.50;;;22.80;99.90;;;;;;5042764;28;20025;-61
2023/03/01 09:11:06;;;;;;;8.93;1.70;;;22.80;99.90;;;;;;5039075;28;20418;-62
2023/03/01 09:13:34;;;;;;;9.32;2.05;;;22.70;99.90;;;;;;5042398;28;20116;-62
2023/03/01 09:16:03;;;;;;;9.73;1.95;;;22.70;99.90;;;;;;5039999;28;20513;-62
2023/03/01 09:18:31;;;;;;;11.23;2.20;;;22.70;99.90;;;;;;5044369;28;20032;-60
2023/03/01 09:21:12;;;;;;;9.38;1.80;;;22.70;99.90;;;;;;5043437;28;20031;-61
2023/03/01 09:23:45;;;;;;;11.48;2.00;;;22.60;99.90;;;;;;5050191;28;20136;-60
2023/03/01 09:26:23;;;;;;;15.27;2.20;;;22.60;99.90;;;;;;5050484;28;20524;-59
2023/03/01 09:28:53;;;;;;;10.75;2.47;;;22.60;99.90;;;;;;5045932;28;20025;-60
2023/03/01 09:31:23;;;;;;;8.85;2.58;;;22.60;99.90;;;;;;5040437;28;20021;-60
2023/03/01 09:33:53;;;;;;;9.95;1.58;;;22.50;99.90;;;;;;5037981;28;20032;-59
2023/03/01 09:36:28;;;;;;;15.73;1.92;;;22.50;99.90;;;;;;5042904;28;20029;-60
2023/03/01 09:38:55;;;;;;;6.82;1.67;;;22.50;99.90;;;;;;5042032;28;20505;-60
2023/03/01 09:41:56;;;;;;;12.10;2.33;;;22.50;99.90;;;;;;5045871;28;20082;-61
2023/03/01 09:44:58;;;;;;;10.50;2.20;;;22.40;99.90;;;;;;5033627;28;20516;-60
2023/03/01 09:47:29;;;;;;;9.25;1.67;;;22.40;99.90;;;;;;5038864;28;20092;-61
2023/03/01 09:50:17;;;;;;;7.90;1.70;;;22.40;99.90;;;;;;5055735;28;20031;-62
2023/03/01 09:53:06;;;;;;;17.17;3.17;;;22.30;99.90;;;;;;5049139;28;20116;-64
2023/03/01 09:55:44;;;;;;;12.57;2.10;;;22.30;99.90;;;;;;5046442;28;20579;-61
2023/03/01 09:58:53;;;;;;;10.55;2.08;;;22.20;99.90;;;;;;5045485;28;20032;-62
2023/03/01 10:01:38;;;;;;;12.93;1.98;;;22.20;99.90;;;;;;4983636;28;20023;-61
2023/03/01 10:04:39;;;;;;;9.63;2.83;;;22.10;99.90;;;;;;5037140;28;20044;-60
2023/03/01 10:07:31;;;;;;;8.18;2.38;;;22.00;99.90;;;;;;5045222;28;20041;-59
2023/03/01 10:10:00;;;;;;;8.80;1.67;;;21.90;99.90;;;;;;5038021;28;20108;-60
2023/03/01 10:12:40;;;;;;;15.55;2.05;;;21.90;99.90;;;;;;5048195;28;20028;-60
2023/03/01 10:15:18;;;;;;;10.73;2.45;;;21.90;99.90;;;;;;5040593;28;20344;-60
2023/03/01 10:17:48;;;;;;;7.32;1.40;;;21.80;99.90;;;;;;5038021;28;20041;-60
2023/03/01 10:20:22;;;;;;;12.93;1.88;;;21.80;99.90;;;;;;5047998;28;20083;-60
2023/03/01 10:22:52;;;;;;;12.25;2.15;;;21.70;99.90;;;;;;5043188;28;20040;-60
2023/03/01 10:25:43;;;;;;;15.05;2.47;;;21.60;99.90;;;;;;5045129;28;20073;-60
2023/03/01 10:28:52;;;;;;;8.45;2.30;;;21.50;99.90;;;;;;5049902;28;20037;-60
2023/03/01 10:31:36;;;;;;;9.35;2.58;;;21.50;99.90;;;;;;5015822;28;20053;-59
2023/03/01 10:34:20;;;;;;;8.32;1.80;;;21.40;99.90;;;;;;5040640;28;20044;-59
2023/03/01 10:36:52;;;;;;;8.25;1.70;;;21.30;99.90;;;;;;5043211;28;20083;-60
2023/03/01 10:39:23;;;;;;;14.68;3.03;;;21.30;99.90;;;;;;5041044;28;20492;-59
2023/03/01 10:41:57;;;;;;;9.68;2.50;;;21.20;99.90;;;;;;5046530;28;20028;-59
2023/03/01 10:44:47;;;;;;;13.15;2.92;;;21.20;99.90;;;;;;5048543;28;20051;-59
2023/03/01 10:47:21;;;;;;;6.78;1.55;;;21.20;99.90;;;;;;5039759;28;20030;-59
2023/03/01 10:49:57;;;;;;;18.58;4.15;;;21.20;99.90;;;;;;5043279;28;20025;-59
2023/03/01 10:52:36;;;;;;;10.63;2.10;;;21.10;99.90;;;;;;5043035;28;20386;-59
2023/03/01 10:55:22;;;;;;;9.68;2.25;;;21.10;99.90;;;;;;5044566;28;20035;-58
2023/03/01 10:57:50;;;;;;;17.80;3.47;;;21.00;99.90;;;;;;5039535;28;20028;-58
2023/03/01 11:00:22;;;;;;;7.18;2.13;;;21.00;99.90;;;;;;5046997;28;20049;-59
2023/03/01 11:02:59;;;;;;;8.30;2.00;;;21.00;99.90;;;;;;5061075;28;20029;-58
2023/03/01 11:05:33;;;;;;;8.65;1.83;;;21.00;99.90;;;;;;5052271;28;20044;-60
2023/03/01 11:08:02;;;;;;;8.38;2.08;;;20.90;99.90;;;;;;5040532;28;20032;-59
2023/03/01 11:10:32;;;;;;;10.27;1.90;;;20.90;99.90;;;;;;5056358;28;20033;-59
2023/03/01 11:13:08;;;;;;;9.88;1.98;;;20.90;99.90;;;;;;5047434;28;20028;-59
2023/03/01 11:15:36;;;;;;;10.93;2.03;;;20.80;99.90;;;;;;5060368;28;20032;-59
2023/03/01 11:18:04;;;;;;;18.20;2.40;;;20.80;99.90;;;;;;5046681;28;20132;-58
2023/03/01 11:20:36;;;;;;;12.85;2.20;;;20.80;99.90;;;;;;5044653;28;20075;-58
2023/03/01 11:23:11;;;;;;;8.48;2.20;;;20.70;99.90;;;;;;5052908;28;20021;-58
2023/03/01 11:25:55;;;;;;;11.10;2.20;;;20.70;99.90;;;;;;5038110;28;20092;-58
2023/03/01 11:28:23;;;;;;;9.57;2.15;;;20.60;99.90;;;;;;5049967;28;20461;-58
2023/03/01 11:31:13;;;;;;;10.73;1.65;;;20.60;99.90;;;;;;5051475;28;20749;-58
2023/03/01 11:34:15;;;;;;;10.23;2.92;;;20.50;99.90;;;;;;5035736;28;20044;-58
2023/03/01 11:36:56;;;;;;;8.15;1.67;;;20.50;99.90;;;;;;5042869;28;20051;-60
2023/03/01 11:39:47;;;;;;;11.63;2.00;;;20.40;99.90;;;;;;5040322;28;20025;-59
2023/03/01 11:42:40;;;;;;;10.52;2.42;;;20.40;99.90;;;;;;5055829;28;20013;-59
2023/03/01 11:45:11;;;;;;;18.50;1.83;;;20.40;99.90;;;;;;5037410;28;20033;-59
2023/03/01 11:48:26;;;;;;;6.15;1.80;;;20.40;99.90;;;;;;5045402;28;20021;-59
2023/03/01 11:50:58;;;;;;;9.55;2.38;;;20.30;99.90;;;;;;4987424;28;20026;-58
2023/03/01 11:53:47;;;;;;;7.25;1.98;;;20.30;99.90;;;;;;5022970;28;20033;-59
2023/03/01 11:56:35;;;;;;;8.65;2.10;;;20.20;99.90;;;;;;5046176;28;20013;-58
2023/03/01 11:59:09;;;;;;;14.23;2.60;;;20.20;99.90;;;;;;5047158;28;20489;-57
2023/03/01 12:01:45;;;;;;;7.78;2.17;;;20.20;99.90;;;;;;5041703;28;20051;-58
2023/03/01 12:04:58;;;;;;;7.72;1.80;;;20.20;99.90;;;;;;5058759;28;20036;-58
2023/03/01 12:07:37;;;;;;;9.05;1.80;;;20.20;99.90;;;;;;5044713;28;20029;-58
2023/03/01 12:10:27;;;;;;;6.10;1.80;;;20.10;99.90;;;;;;5055369;28;20498;-58
2023/03/01 12:12:58;;;;;;;12.90;2.28;;;20.10;99.90;;;;;;5048642;28;20083;-59
2023/03/01 12:15:49;;;;;;;15.85;3.80;;;20.10;99.90;;;;;;5062797;28;20085;-58
2023/03/01 12:18:54;;;;;;;6.68;2.30;;;20.10;99.90;;;;;;5056765;28;20036;-59
2023/03/01 12:21:49;;;;;;;7.65;2.08;;;20.20;99.90;;;;;;5044004;28;20017;-59
2023/03/01 12:24:50;;;;;;;11.15;2.45;;;20.30;99.90;;;;;;5053818;28;20037;-59
2023/03/01 12:27:33;;;;;;;10.57;2.45;;;20.40;99.90;;;;;;5042370;28;20376;-59
2023/03/01 12:30:27;;;;;;;12.15;2.05;;;20.40;99.90;;;;;;5053716;28;20052;-59
2023/03/01 12:33:16;;;;;;;7.60;2.53;;;20.40;99.90;;;;;;5046772;28;20056;-59
2023/03/01 12:36:07;;;;;;;11.70;2.65;;;20.40;99.90;;;;;;5043089;28;20021;-59
2023/03/01 12:38:58;;;;;;;7.68;1.92;;;20.40;99.90;;;;;;5041075;28;20037;-59
2023/03/01 12:41:43;;;;;;;6.18;1.55;;;20.40;99.90;;;;;;5051082;28;20047;-59
2023/03/01 12:44:38;;;;;;;7.38;1.90;;;20.40;99.90;;;;;;5051458;28;20512;-59
2023/03/01 12:47:17;;;;;;;6.80;1.60;;;20.30;99.90;;;;;;5058474;28;20515;-59
2023/03/01 12:50:11;;;;;;;7.03;2.30;;;20.30;99.90;;;;;;5043986;28;20021;-65
2023/03/01 12:52:52;;;;;;;5.60;1.52;;;20.30;99.90;;;;;;5045397;28;20055;-59
2023/03/01 12:55:36;;;;;;;6.93;2.00;;;20.30;99.90;;;;;;5037136;28;20021;-60
2023/03/01 12:58:40;;;;;;;7.07;1.45;;;20.30;99.90;;;;;;5042153;28;20021;-58
2023/03/01 13:01:23;;;;;;;7.68;2.28;;;20.20;99.90;;;;;;5045490;28;20016;-58
2023/03/01 13:03:50;;;;;;;11.57;3.22;;;20.10;99.90;;;;;;5048519;28;20031;-58
2023/03/01 13:06:46;;;;;;;8.02;1.80;;;20.10;99.90;;;;;;5055363;28;20039;-58
2023/03/01 13:09:23;;;;;;;12.30;2.92;;;20.10;99.90;;;;;;5033278;28;20045;-58
2023/03/01 13:11:50;;;;;;;7.43;1.98;;;20.10;99.90;;;;;;5055041;28;20468;-58
2023/03/01 13:14:24;;;;;;;10.70;2.00;;;20.00;99.90;;;;;;5052635;28;20032;-60
2023/03/01 13:16:54;;;;;;;6.97;1.77;;;20.00;99.90;;;;;;5046669;28;20061;-59
2023/03/01 13:19:29;;;;;;;11.35;2.55;;;20.00;99.90;;;;;;5039101;28;20281;-59
2023/03/01 13:21:57;;;;;;;6.60;2.13;;;19.90;99.90;;;;;;5047266;28;20036;-59